Historique des mesures à Cassis (13260), France
Quotidien Résumé Mars 11, 2018 Unités:  Métrique    US   Métrique/US
« Précédent (Jour)
Suivant (Jour) »
Quotidien Hebdomadaire Mensuel Annuel Période au choix
  Maximum: Minimum: Moyenne:
Température: TemperatureC °C 13.3 °C 14.2 °C
Point de rosée: DewpointC °C 9.8 °C 10.9 °C
Humidité: Humidity % 73 % 77 %
Vitesse du vent: 0 km/h 0 km/h 7.9 km/h
Rafales: 0 km/h - -
Vent:- - SE
Pression: PressurehPa hPa 993.8 hPa -
Précipitations: 0.0 mm    
Historical Graphs
 
 
Mesures pour : Mars 11, 2018
Heure Temperature Point de rosée Pression Vent Vitesse du vent Rafales Humidité Pluie (par heure) Conditions
TemperatureC °C DewpointC °C PressurehPa hPa Calm     Humidity % HourlyPrecipMM mm SoftwareType W/m2
00:12 13.3 °C 10.8 °C 1002.9 hPa ESE 10.9 km/h 29 km/h 85 % 0.0 mm open2300-1.11 W/m2
01:12 13.5 °C 11.0 °C 1001.6 hPa ESE 12.2 km/h 12.2 km/h 85 % 0.0 mm open2300-1.11 W/m2
02:12 13.8 °C 11.3 °C 1000.9 hPa East 15.6 km/h 17.4 km/h 85 % 0.0 mm open2300-1.11 W/m2
03:11 13.9 °C 11.4 °C 999.9 hPa ESE 11.6 km/h 14.5 km/h 85 % 0.0 mm open2300-1.11 W/m2
04:12 13.8 °C 11.3 °C 999.2 hPa SE 9.8 km/h 15 km/h 85 % 0.0 mm open2300-1.11 W/m2
05:12 13.8 °C 11.3 °C 998.9 hPa East 20.3 km/h 21.6 km/h 85 % 0.0 mm open2300-1.11 W/m2
06:12 13.8 °C 11.5 °C 998.2 hPa ESE 9.8 km/h 15 km/h 86 % 0.0 mm open2300-1.11 W/m2
07:12 13.9 °C 11.8 °C 997.5 hPa SSE 12.2 km/h 15 km/h 87 % 0.0 mm open2300-1.11 W/m2
08:11 13.8 °C 11.8 °C 997.5 hPa SE 6.4 km/h 17.4 km/h 88 % 0.0 mm open2300-1.11 W/m2
09:12 14.5 °C 12.2 °C 997.2 hPa ENE 2.9 km/h 6.4 km/h 86 % 0.0 mm open2300-1.11 W/m2
10:11 14.9 °C 12.4 °C 997.2 hPa WNW 5.6 km/h 5.6 km/h 85 % 0.0 mm open2300-1.11 W/m2
11:12 15.9 °C 12.7 °C 996.5 hPa SW 6.4 km/h 19.6 km/h 81 % 0.0 mm open2300-1.11 W/m2
12:12 17.2 °C 13.1 °C 996.2 hPa NNE 5.1 km/h 8.9 km/h 77 % 0.0 mm open2300-1.11 W/m2
13:11 18.1 °C 13.2 °C 995.8 hPa South 6.4 km/h 6.4 km/h 73 % 0.0 mm open2300-1.11 W/m2
14:12 16.9 °C 12.4 °C 994.8 hPa SW 9.8 km/h 13.2 km/h 75 % 0.0 mm open2300-1.11 W/m2
15:12 16.8 °C 12.1 °C 994.1 hPa SE 12.2 km/h 12.2 km/h 74 % 0.0 mm open2300-1.11 W/m2
16:11 15.5 °C 11.5 °C 994.5 hPa South 2.9 km/h 3.4 km/h 77 % 0.0 mm open2300-1.11 W/m2
17:12 15.2 °C 11.4 °C 994.1 hPa Calm   7.6 km/h 78 % 0.0 mm open2300-1.11 W/m2
18:12 14.6 °C 10.6 °C 993.8 hPa ESE 6.4 km/h 15.6 km/h 77 % 0.0 mm open2300-1.11 W/m2
19:11 14.4 °C 10.2 °C 993.8 hPa ESE 9.3 km/h 13.2 km/h 76 % 0.0 mm open2300-1.11 W/m2
20:12 14.4 °C 9.8 °C 994.5 hPa SSW 4.2 km/h 14.5 km/h 74 % 0.0 mm open2300-1.11 W/m2
21:12 14.2 °C 9.8 °C 994.5 hPa NW 3.4 km/h 7.6 km/h 75 % 0.0 mm open2300-1.11 W/m2
22:12 14.3 °C 9.9 °C 995.1 hPa ENE 13.2 km/h 13.2 km/h 75 % 0.0 mm open2300-1.11 W/m2
23:11 14.1 °C 9.9 °C 994.5 hPa Calm   4.7 km/h 76 % 0.0 mm open2300-1.11 W/m2
Observations météo à CASSIS
WU-History script by Weather Underground - 1 mb